sensor_id;sensor_type;location;lat;lon;timestamp;temperature;humidity
74101;DHT22;62462;52.530;21.682;2023-03-24T00:01:13;15.00;62.80
74101;DHT22;62462;52.530;21.682;2023-03-24T00:03:39;15.00;62.60
74101;DHT22;62462;52.530;21.682;2023-03-24T00:06:06;15.00;62.80
74101;DHT22;62462;52.530;21.682;2023-03-24T00:08:35;15.00;63.90
74101;DHT22;62462;52.530;21.682;2023-03-24T00:11:04;15.10;63.00
74101;DHT22;62462;52.530;21.682;2023-03-24T00:13:31;15.10;63.00
74101;DHT22;62462;52.530;21.682;2023-03-24T00:16:07;15.10;63.10
74101;DHT22;62462;52.530;21.682;2023-03-24T00:18:34;15.10;63.10
74101;DHT22;62462;52.530;21.682;2023-03-24T00:21:02;15.00;63.10
74101;DHT22;62462;52.530;21.682;2023-03-24T00:23:29;15.00;63.00
74101;DHT22;62462;52.530;21.682;2023-03-24T00:26:04;15.00;62.80
74101;DHT22;62462;52.530;21.682;2023-03-24T00:28:31;15.00;62.70
74101;DHT22;62462;52.530;21.682;2023-03-24T00:30:59;15.10;62.40
74101;DHT22;62462;52.530;21.682;2023-03-24T00:33:27;15.10;62.20
74101;DHT22;62462;52.530;21.682;2023-03-24T00:36:01;15.10;62.00
74101;DHT22;62462;52.530;21.682;2023-03-24T00:38:27;15.10;61.80
74101;DHT22;62462;52.530;21.682;2023-03-24T00:40:53;15.10;61.80
74101;DHT22;62462;52.530;21.682;2023-03-24T00:43:19;15.00;62.00
74101;DHT22;62462;52.530;21.682;2023-03-24T00:45:46;14.90;62.10
74101;DHT22;62462;52.530;21.682;2023-03-24T00:48:13;14.90;62.00
74101;DHT22;62462;52.530;21.682;2023-03-24T00:50:43;14.80;62.00
74101;DHT22;62462;52.530;21.682;2023-03-24T00:53:09;14.80;62.00
74101;DHT22;62462;52.530;21.682;2023-03-24T00:55:35;14.70;62.10
74101;DHT22;62462;52.530;21.682;2023-03-24T00:58:03;14.70;62.10
74101;DHT22;62462;52.530;21.682;2023-03-24T01:00:29;14.60;62.10
74101;DHT22;62462;52.530;21.682;2023-03-24T01:02:56;14.60;62.00
74101;DHT22;62462;52.530;21.682;2023-03-24T01:05:25;14.50;62.00
74101;DHT22;62462;52.530;21.682;2023-03-24T01:07:55;14.40;62.40
74101;DHT22;62462;52.530;21.682;2023-03-24T01:10:22;14.30;62.60
74101;DHT22;62462;52.530;21.682;2023-03-24T01:12:52;14.20;62.60
74101;DHT22;62462;52.530;21.682;2023-03-24T01:15:22;14.10;63.10
74101;DHT22;62462;52.530;21.682;2023-03-24T01:17:49;14.00;63.30
74101;DHT22;62462;52.530;21.682;2023-03-24T01:20:18;13.90;63.00
74101;DHT22;62462;52.530;21.682;2023-03-24T01:22:44;13.80;63.30
74101;DHT22;62462;52.530;21.682;2023-03-24T01:25:16;13.70;63.50
74101;DHT22;62462;52.530;21.682;2023-03-24T01:27:43;13.70;63.90
74101;DHT22;62462;52.530;21.682;2023-03-24T01:30:13;13.60;64.30
74101;DHT22;62462;52.530;21.682;2023-03-24T01:32:40;13.50;64.50
74101;DHT22;62462;52.530;21.682;2023-03-24T01:35:06;13.40;64.40
74101;DHT22;62462;52.530;21.682;2023-03-24T01:37:33;13.30;64.70
74101;DHT22;62462;52.530;21.682;2023-03-24T01:39:58;13.20;64.80
74101;DHT22;62462;52.530;21.682;2023-03-24T01:42:26;13.10;64.80
74101;DHT22;62462;52.530;21.682;2023-03-24T01:44:58;13.10;64.80
74101;DHT22;62462;52.530;21.682;2023-03-24T01:47:24;13.00;64.60
74101;DHT22;62462;52.530;21.682;2023-03-24T01:49:53;13.00;64.40
74101;DHT22;62462;52.530;21.682;2023-03-24T01:52:30;13.00;64.60
74101;DHT22;62462;52.530;21.682;2023-03-24T01:55:07;12.90;64.60
74101;DHT22;62462;52.530;21.682;2023-03-24T01:57:41;12.90;64.60
74101;DHT22;62462;52.530;21.682;2023-03-24T02:00:13;12.80;64.70
74101;DHT22;62462;52.530;21.682;2023-03-24T02:02:42;12.70;65.50
74101;DHT22;62462;52.530;21.682;2023-03-24T02:05:11;12.60;66.00
74101;DHT22;62462;52.530;21.682;2023-03-24T02:10:20;12.50;65.70
74101;DHT22;62462;52.530;21.682;2023-03-24T02:12:47;12.50;65.10
74101;DHT22;62462;52.530;21.682;2023-03-24T02:15:15;12.40;65.20
74101;DHT22;62462;52.530;21.682;2023-03-24T02:29:37;12.20;66.00
74101;DHT22;62462;52.530;21.682;2023-03-24T02:43:42;12.00;66.80
74101;DHT22;62462;52.530;21.682;2023-03-24T02:52:38;11.70;67.40
74101;DHT22;62462;52.530;21.682;2023-03-24T02:55:26;11.60;66.60
74101;DHT22;62462;52.530;21.682;2023-03-24T02:58:26;11.60;66.40
74101;DHT22;62462;52.530;21.682;2023-03-24T03:01:25;11.50;66.90
74101;DHT22;62462;52.530;21.682;2023-03-24T03:04:00;11.50;67.30
74101;DHT22;62462;52.530;21.682;2023-03-24T03:06:29;11.40;67.20
74101;DHT22;62462;52.530;21.682;2023-03-24T03:09:00;11.40;67.40
74101;DHT22;62462;52.530;21.682;2023-03-24T03:11:27;11.40;66.80
74101;DHT22;62462;52.530;21.682;2023-03-24T03:14:03;11.40;66.20
74101;DHT22;62462;52.530;21.682;2023-03-24T03:16:38;11.30;66.90
74101;DHT22;62462;52.530;21.682;2023-03-24T03:19:11;11.30;66.60
74101;DHT22;62462;52.530;21.682;2023-03-24T03:21:41;11.30;66.50
74101;DHT22;62462;52.530;21.682;2023-03-24T03:24:16;11.30;66.40
74101;DHT22;62462;52.530;21.682;2023-03-24T03:26:45;11.30;66.30
74101;DHT22;62462;52.530;21.682;2023-03-24T03:29:17;11.20;66.30
74101;DHT22;62462;52.530;21.682;2023-03-24T03:31:54;11.20;67.00
74101;DHT22;62462;52.530;21.682;2023-03-24T03:34:39;11.20;67.00
74101;DHT22;62462;52.530;21.682;2023-03-24T03:37:34;11.20;66.40
74101;DHT22;62462;52.530;21.682;2023-03-24T03:40:30;11.20;66.50
74101;DHT22;62462;52.530;21.682;2023-03-24T03:42:57;11.20;66.80
74101;DHT22;62462;52.530;21.682;2023-03-24T03:45:23;11.10;66.80
74101;DHT22;62462;52.530;21.682;2023-03-24T03:47:49;11.10;67.10
74101;DHT22;62462;52.530;21.682;2023-03-24T03:50:15;11.10;66.70
74101;DHT22;62462;52.530;21.682;2023-03-24T03:52:41;11.10;66.40
74101;DHT22;62462;52.530;21.682;2023-03-24T03:55:11;11.00;66.50
74101;DHT22;62462;52.530;21.682;2023-03-24T03:57:38;10.80;67.50
74101;DHT22;62462;52.530;21.682;2023-03-24T04:00:06;10.80;68.00
74101;DHT22;62462;52.530;21.682;2023-03-24T04:02:44;10.80;67.10
74101;DHT22;62462;52.530;21.682;2023-03-24T04:08:18;10.80;66.90
74101;DHT22;62462;52.530;21.682;2023-03-24T04:13:48;10.80;67.40
74101;DHT22;62462;52.530;21.682;2023-03-24T04:21:44;10.80;67.10
74101;DHT22;62462;52.530;21.682;2023-03-24T04:27:27;10.80;68.60
74101;DHT22;62462;52.530;21.682;2023-03-24T04:35:12;11.10;70.50
74101;DHT22;62462;52.530;21.682;2023-03-24T04:37:46;11.10;70.40
74101;DHT22;62462;52.530;21.682;2023-03-24T04:40:13;11.20;70.60
74101;DHT22;62462;52.530;21.682;2023-03-24T04:42:50;11.30;70.70
74101;DHT22;62462;52.530;21.682;2023-03-24T04:45:17;11.40;70.80
74101;DHT22;62462;52.530;21.682;2023-03-24T04:47:52;11.40;70.20
74101;DHT22;62462;52.530;21.682;2023-03-24T04:50:28;11.50;70.40
74101;DHT22;62462;52.530;21.682;2023-03-24T04:52:55;11.50;70.10
74101;DHT22;62462;52.530;21.682;2023-03-24T04:58:06;11.50;69.40
74101;DHT22;62462;52.530;21.682;2023-03-24T05:00:32;11.60;69.30
74101;DHT22;62462;52.530;21.682;2023-03-24T05:02:57;11.50;68.70
74101;DHT22;62462;52.530;21.682;2023-03-24T05:05:24;11.50;68.60
74101;DHT22;62462;52.530;21.682;2023-03-24T05:07:50;11.50;68.40
74101;DHT22;62462;52.530;21.682;2023-03-24T05:10:16;11.50;68.60
74101;DHT22;62462;52.530;21.682;2023-03-24T05:12:42;11.50;68.60
74101;DHT22;62462;52.530;21.682;2023-03-24T05:15:09;11.40;68.70
74101;DHT22;62462;52.530;21.682;2023-03-24T05:17:35;11.40;68.80
74101;DHT22;62462;52.530;21.682;2023-03-24T05:20:01;11.50;68.90
74101;DHT22;62462;52.530;21.682;2023-03-24T05:22:26;11.50;68.80
74101;DHT22;62462;52.530;21.682;2023-03-24T05:24:52;11.50;69.00
74101;DHT22;62462;52.530;21.682;2023-03-24T05:27:18;11.60;69.00
74101;DHT22;62462;52.530;21.682;2023-03-24T05:29:44;11.70;69.20
74101;DHT22;62462;52.530;21.682;2023-03-24T05:32:10;11.70;69.30
74101;DHT22;62462;52.530;21.682;2023-03-24T05:34:37;11.80;69.40
74101;DHT22;62462;52.530;21.682;2023-03-24T05:37:03;11.80;69.50
74101;DHT22;62462;52.530;21.682;2023-03-24T05:39:29;11.90;70.00
74101;DHT22;62462;52.530;21.682;2023-03-24T05:41:55;12.00;70.80
74101;DHT22;62462;52.530;21.682;2023-03-24T05:44:21;12.10;70.30
74101;DHT22;62462;52.530;21.682;2023-03-24T05:46:47;12.10;70.50
74101;DHT22;62462;52.530;21.682;2023-03-24T05:49:12;12.20;70.30
74101;DHT22;62462;52.530;21.682;2023-03-24T05:51:39;12.30;70.20
74101;DHT22;62462;52.530;21.682;2023-03-24T05:54:05;12.40;69.90
74101;DHT22;62462;52.530;21.682;2023-03-24T05:56:31;12.50;69.90
74101;DHT22;62462;52.530;21.682;2023-03-24T05:58:57;12.60;70.20
74101;DHT22;62462;52.530;21.682;2023-03-24T06:01:23;12.70;70.00
74101;DHT22;62462;52.530;21.682;2023-03-24T06:03:50;12.70;69.70
74101;DHT22;62462;52.530;21.682;2023-03-24T06:06:16;12.80;69.60
74101;DHT22;62462;52.530;21.682;2023-03-24T06:08:43;12.90;69.30
74101;DHT22;62462;52.530;21.682;2023-03-24T06:11:12;12.90;69.30
74101;DHT22;62462;52.530;21.682;2023-03-24T06:13:38;13.00;69.10
74101;DHT22;62462;52.530;21.682;2023-03-24T06:16:05;13.00;68.80
74101;DHT22;62462;52.530;21.682;2023-03-24T06:18:31;13.10;68.70
74101;DHT22;62462;52.530;21.682;2023-03-24T06:20:58;13.10;69.00
74101;DHT22;62462;52.530;21.682;2023-03-24T06:23:25;13.10;69.20
74101;DHT22;62462;52.530;21.682;2023-03-24T06:25:53;13.10;69.40
74101;DHT22;62462;52.530;21.682;2023-03-24T06:28:20;13.20;69.90
74101;DHT22;62462;52.530;21.682;2023-03-24T06:30:46;13.20;70.00
74101;DHT22;62462;52.530;21.682;2023-03-24T06:33:14;13.10;70.20
74101;DHT22;62462;52.530;21.682;2023-03-24T06:35:40;13.10;70.00
74101;DHT22;62462;52.530;21.682;2023-03-24T06:38:06;13.20;70.00
74101;DHT22;62462;52.530;21.682;2023-03-24T06:40:33;13.20;70.10
74101;DHT22;62462;52.530;21.682;2023-03-24T06:42:59;13.30;69.80
74101;DHT22;62462;52.530;21.682;2023-03-24T06:45:25;13.30;70.00
74101;DHT22;62462;52.530;21.682;2023-03-24T06:47:52;13.30;69.80
74101;DHT22;62462;52.530;21.682;2023-03-24T06:50:21;13.40;69.90
74101;DHT22;62462;52.530;21.682;2023-03-24T06:52:47;13.40;70.50
74101;DHT22;62462;52.530;21.682;2023-03-24T06:55:12;13.40;70.10
74101;DHT22;62462;52.530;21.682;2023-03-24T06:57:39;13.50;70.30
74101;DHT22;62462;52.530;21.682;2023-03-24T07:00:05;13.60;70.10
74101;DHT22;62462;52.530;21.682;2023-03-24T07:02:33;13.60;70.10
74101;DHT22;62462;52.530;21.682;2023-03-24T07:05:03;13.60;70.00
74101;DHT22;62462;52.530;21.682;2023-03-24T07:07:37;13.70;70.00
74101;DHT22;62462;52.530;21.682;2023-03-24T07:10:04;13.70;69.90
74101;DHT22;62462;52.530;21.682;2023-03-24T07:12:30;13.80;70.30
74101;DHT22;62462;52.530;21.682;2023-03-24T07:14:56;13.90;70.20
74101;DHT22;62462;52.530;21.682;2023-03-24T07:17:23;13.90;70.60
74101;DHT22;62462;52.530;21.682;2023-03-24T07:19:49;13.90;70.00
74101;DHT22;62462;52.530;21.682;2023-03-24T07:22:14;14.00;69.50
74101;DHT22;62462;52.530;21.682;2023-03-24T07:24:41;14.00;69.00
74101;DHT22;62462;52.530;21.682;2023-03-24T07:27:07;14.00;69.10
74101;DHT22;62462;52.530;21.682;2023-03-24T07:29:33;14.00;69.00
74101;DHT22;62462;52.530;21.682;2023-03-24T07:31:59;14.00;69.50
74101;DHT22;62462;52.530;21.682;2023-03-24T07:34:29;14.00;69.20
74101;DHT22;62462;52.530;21.682;2023-03-24T07:36:55;14.00;69.40
74101;DHT22;62462;52.530;21.682;2023-03-24T07:39:21;14.00;69.60
74101;DHT22;62462;52.530;21.682;2023-03-24T07:41:46;14.00;69.50
74101;DHT22;62462;52.530;21.682;2023-03-24T07:44:12;14.00;69.60
74101;DHT22;62462;52.530;21.682;2023-03-24T07:46:38;14.00;69.90
74101;DHT22;62462;52.530;21.682;2023-03-24T07:49:05;14.00;69.70
74101;DHT22;62462;52.530;21.682;2023-03-24T07:51:31;14.10;69.80
74101;DHT22;62462;52.530;21.682;2023-03-24T07:53:57;14.10;69.80
74101;DHT22;62462;52.530;21.682;2023-03-24T07:56:23;14.20;70.30
74101;DHT22;62462;52.530;21.682;2023-03-24T07:58:49;14.20;70.40
74101;DHT22;62462;52.530;21.682;2023-03-24T08:01:16;14.20;70.70
74101;DHT22;62462;52.530;21.682;2023-03-24T08:03:42;14.20;70.40
74101;DHT22;62462;52.530;21.682;2023-03-24T08:06:08;14.20;70.40
74101;DHT22;62462;52.530;21.682;2023-03-24T08:08:35;14.20;70.60
74101;DHT22;62462;52.530;21.682;2023-03-24T08:11:02;14.30;70.90
74101;DHT22;62462;52.530;21.682;2023-03-24T08:13:28;14.30;70.90
74101;DHT22;62462;52.530;21.682;2023-03-24T08:15:55;14.30;70.90
74101;DHT22;62462;52.530;21.682;2023-03-24T08:18:21;14.40;71.20
74101;DHT22;62462;52.530;21.682;2023-03-24T08:20:49;14.40;70.90
74101;DHT22;62462;52.530;21.682;2023-03-24T08:23:19;14.40;70.90
74101;DHT22;62462;52.530;21.682;2023-03-24T08:25:44;14.50;71.10
74101;DHT22;62462;52.530;21.682;2023-03-24T08:28:12;14.50;71.30
74101;DHT22;62462;52.530;21.682;2023-03-24T08:30:37;14.50;71.90
74101;DHT22;62462;52.530;21.682;2023-03-24T08:33:04;14.50;71.30
74101;DHT22;62462;52.530;21.682;2023-03-24T08:35:32;14.50;72.60
74101;DHT22;62462;52.530;21.682;2023-03-24T08:37:59;14.50;71.90
74101;DHT22;62462;52.530;21.682;2023-03-24T08:40:27;14.50;71.50
74101;DHT22;62462;52.530;21.682;2023-03-24T08:42:55;14.50;71.50
74101;DHT22;62462;52.530;21.682;2023-03-24T08:45:24;14.60;71.30
74101;DHT22;62462;52.530;21.682;2023-03-24T08:47:52;14.60;71.90
74101;DHT22;62462;52.530;21.682;2023-03-24T08:50:20;14.60;71.50
74101;DHT22;62462;52.530;21.682;2023-03-24T08:52:47;14.60;71.70
74101;DHT22;62462;52.530;21.682;2023-03-24T08:55:15;14.70;72.00
74101;DHT22;62462;52.530;21.682;2023-03-24T08:57:41;14.80;71.50
74101;DHT22;62462;52.530;21.682;2023-03-24T09:00:08;14.80;71.70
74101;DHT22;62462;52.530;21.682;2023-03-24T09:02:45;14.80;71.70
74101;DHT22;62462;52.530;21.682;2023-03-24T09:05:12;14.80;72.40
74101;DHT22;62462;52.530;21.682;2023-03-24T09:07:38;14.80;72.70
74101;DHT22;62462;52.530;21.682;2023-03-24T09:10:05;14.80;72.00
74101;DHT22;62462;52.530;21.682;2023-03-24T09:12:32;14.90;72.40
74101;DHT22;62462;52.530;21.682;2023-03-24T09:14:58;14.90;72.30
74101;DHT22;62462;52.530;21.682;2023-03-24T09:17:24;14.90;73.10
74101;DHT22;62462;52.530;21.682;2023-03-24T09:19:50;14.90;73.30
74101;DHT22;62462;52.530;21.682;2023-03-24T09:22:16;14.90;74.00
74101;DHT22;62462;52.530;21.682;2023-03-24T09:24:41;14.70;73.80
74101;DHT22;62462;52.530;21.682;2023-03-24T09:27:09;14.70;73.20
74101;DHT22;62462;52.530;21.682;2023-03-24T09:29:35;14.60;73.60
74101;DHT22;62462;52.530;21.682;2023-03-24T09:32:01;14.50;73.80
74101;DHT22;62462;52.530;21.682;2023-03-24T09:34:27;14.60;74.00
74101;DHT22;62462;52.530;21.682;2023-03-24T09:36:53;14.50;74.00
74101;DHT22;62462;52.530;21.682;2023-03-24T09:39:19;14.50;74.10
74101;DHT22;62462;52.530;21.682;2023-03-24T09:41:45;14.50;75.20
74101;DHT22;62462;52.530;21.682;2023-03-24T09:44:22;14.50;74.10
74101;DHT22;62462;52.530;21.682;2023-03-24T09:49:27;14.50;74.60
74101;DHT22;62462;52.530;21.682;2023-03-24T09:51:59;14.50;74.50
74101;DHT22;62462;52.530;21.682;2023-03-24T09:57:36;14.60;74.30
74101;DHT22;62462;52.530;21.682;2023-03-24T10:00:31;14.60;74.40
74101;DHT22;62462;52.530;21.682;2023-03-24T10:03:15;14.60;74.40
74101;DHT22;62462;52.530;21.682;2023-03-24T10:08:45;15.00;74.00
74101;DHT22;62462;52.530;21.682;2023-03-24T10:19:37;15.60;72.30
74101;DHT22;62462;52.530;21.682;2023-03-24T10:22:18;15.70;71.60
74101;DHT22;62462;52.530;21.682;2023-03-24T10:27:48;15.80;71.20
74101;DHT22;62462;52.530;21.682;2023-03-24T10:30:21;16.00;71.40
74101;DHT22;62462;52.530;21.682;2023-03-24T10:32:48;16.10;70.30
74101;DHT22;62462;52.530;21.682;2023-03-24T10:35:21;16.20;69.60
74101;DHT22;62462;52.530;21.682;2023-03-24T10:37:50;16.20;69.70
74101;DHT22;62462;52.530;21.682;2023-03-24T10:40:19;16.10;69.60
74101;DHT22;62462;52.530;21.682;2023-03-24T10:42:47;16.10;69.90
74101;DHT22;62462;52.530;21.682;2023-03-24T10:45:23;16.10;70.30
74101;DHT22;62462;52.530;21.682;2023-03-24T10:47:50;16.10;70.20
74101;DHT22;62462;52.530;21.682;2023-03-24T10:50:17;16.10;70.00
74101;DHT22;62462;52.530;21.682;2023-03-24T10:52:48;16.10;70.70
74101;DHT22;62462;52.530;21.682;2023-03-24T10:55:17;16.20;70.70
74101;DHT22;62462;52.530;21.682;2023-03-24T10:57:54;16.20;70.50
74101;DHT22;62462;52.530;21.682;2023-03-24T11:00:27;16.20;70.80
74101;DHT22;62462;52.530;21.682;2023-03-24T11:03:04;16.30;70.30
74101;DHT22;62462;52.530;21.682;2023-03-24T11:05:36;16.30;70.30
74101;DHT22;62462;52.530;21.682;2023-03-24T11:10:49;16.20;69.90
74101;DHT22;62462;52.530;21.682;2023-03-24T11:13:25;16.30;70.60
74101;DHT22;62462;52.530;21.682;2023-03-24T11:18:27;16.40;70.10
74101;DHT22;62462;52.530;21.682;2023-03-24T11:20:57;16.30;70.00
74101;DHT22;62462;52.530;21.682;2023-03-24T11:23:41;16.40;69.20
74101;DHT22;62462;52.530;21.682;2023-03-24T11:28:56;16.60;68.00
74101;DHT22;62462;52.530;21.682;2023-03-24T11:31:27;16.60;68.20
74101;DHT22;62462;52.530;21.682;2023-03-24T11:34:19;16.70;68.50
74101;DHT22;62462;52.530;21.682;2023-03-24T11:36:56;16.80;68.10
74101;DHT22;62462;52.530;21.682;2023-03-24T11:39:24;16.90;67.40
74101;DHT22;62462;52.530;21.682;2023-03-24T11:49:36;16.80;67.70
74101;DHT22;62462;52.530;21.682;2023-03-24T11:52:08;16.80;67.50
74101;DHT22;62462;52.530;21.682;2023-03-24T11:54:36;16.80;67.60
74101;DHT22;62462;52.530;21.682;2023-03-24T11:57:07;16.80;67.90
74101;DHT22;62462;52.530;21.682;2023-03-24T12:00:03;16.80;67.90
74101;DHT22;62462;52.530;21.682;2023-03-24T12:05:22;16.80;68.10
74101;DHT22;62462;52.530;21.682;2023-03-24T12:13:13;16.90;67.50
74101;DHT22;62462;52.530;21.682;2023-03-24T12:15:59;16.90;67.30
74101;DHT22;62462;52.530;21.682;2023-03-24T12:26:33;17.10;66.40
74101;DHT22;62462;52.530;21.682;2023-03-24T12:32:29;17.00;66.10
74101;DHT22;62462;52.530;21.682;2023-03-24T12:37:57;16.90;66.70
74101;DHT22;62462;52.530;21.682;2023-03-24T12:40:45;16.90;66.70
74101;DHT22;62462;52.530;21.682;2023-03-24T12:45:58;17.00;66.80
74101;DHT22;62462;52.530;21.682;2023-03-24T12:57:02;17.20;65.80
74101;DHT22;62462;52.530;21.682;2023-03-24T12:59:40;17.30;65.10
74101;DHT22;62462;52.530;21.682;2023-03-24T13:04:36;17.70;64.10
74101;DHT22;62462;52.530;21.682;2023-03-24T13:07:09;17.90;63.20
74101;DHT22;62462;52.530;21.682;2023-03-24T13:17:59;18.40;60.60
74101;DHT22;62462;52.530;21.682;2023-03-24T13:20:55;18.50;60.70
74101;DHT22;62462;52.530;21.682;2023-03-24T13:23:45;18.70;60.10
74101;DHT22;62462;52.530;21.682;2023-03-24T13:31:56;19.20;57.50
74101;DHT22;62462;52.530;21.682;2023-03-24T13:34:46;19.30;57.70
74101;DHT22;62462;52.530;21.682;2023-03-24T13:37:25;19.30;57.20
74101;DHT22;62462;52.530;21.682;2023-03-24T13:39:58;19.40;56.40
74101;DHT22;62462;52.530;21.682;2023-03-24T13:42:31;19.40;55.90
74101;DHT22;62462;52.530;21.682;2023-03-24T13:45:03;19.40;56.10
74101;DHT22;62462;52.530;21.682;2023-03-24T13:47:48;19.20;56.50
74101;DHT22;62462;52.530;21.682;2023-03-24T13:50:14;19.10;57.10
74101;DHT22;62462;52.530;21.682;2023-03-24T13:52:46;19.10;57.40
74101;DHT22;62462;52.530;21.682;2023-03-24T13:55:34;19.00;56.90
74101;DHT22;62462;52.530;21.682;2023-03-24T13:58:10;19.00;57.30
74101;DHT22;62462;52.530;21.682;2023-03-24T14:03:38;19.10;57.10
74101;DHT22;62462;52.530;21.682;2023-03-24T14:06:06;19.10;56.80
74101;DHT22;62462;52.530;21.682;2023-03-24T14:14:06;18.80;56.20
74101;DHT22;62462;52.530;21.682;2023-03-24T14:24:29;18.60;56.70
74101;DHT22;62462;52.530;21.682;2023-03-24T14:26:57;18.50;56.90
74101;DHT22;62462;52.530;21.682;2023-03-24T14:29:40;18.50;56.90
74101;DHT22;62462;52.530;21.682;2023-03-24T14:32:16;18.60;56.80
74101;DHT22;62462;52.530;21.682;2023-03-24T14:34:56;18.60;56.80
74101;DHT22;62462;52.530;21.682;2023-03-24T14:37:27;18.70;56.90
74101;DHT22;62462;52.530;21.682;2023-03-24T14:39:55;18.70;56.30
74101;DHT22;62462;52.530;21.682;2023-03-24T14:45:04;18.70;56.20
74101;DHT22;62462;52.530;21.682;2023-03-24T14:47:37;18.70;56.10
74101;DHT22;62462;52.530;21.682;2023-03-24T14:50:21;18.80;56.10
74101;DHT22;62462;52.530;21.682;2023-03-24T14:52:48;18.80;56.00
74101;DHT22;62462;52.530;21.682;2023-03-24T14:55:16;19.00;55.30
74101;DHT22;62462;52.530;21.682;2023-03-24T14:57:51;19.10;56.50
74101;DHT22;62462;52.530;21.682;2023-03-24T15:00:30;19.30;55.20
74101;DHT22;62462;52.530;21.682;2023-03-24T15:03:10;19.40;54.20
74101;DHT22;62462;52.530;21.682;2023-03-24T15:05:42;19.40;54.70
74101;DHT22;62462;52.530;21.682;2023-03-24T15:08:21;19.30;54.30
74101;DHT22;62462;52.530;21.682;2023-03-24T15:11:00;19.20;53.80
74101;DHT22;62462;52.530;21.682;2023-03-24T15:16:04;19.10;54.10
74101;DHT22;62462;52.530;21.682;2023-03-24T15:18:32;18.90;53.90
74101;DHT22;62462;52.530;21.682;2023-03-24T15:20:58;18.90;54.50
74101;DHT22;62462;52.530;21.682;2023-03-24T15:23:25;18.90;54.90
74101;DHT22;62462;52.530;21.682;2023-03-24T15:25:53;18.80;54.30
74101;DHT22;62462;52.530;21.682;2023-03-24T15:28:28;18.90;54.60
74101;DHT22;62462;52.530;21.682;2023-03-24T15:30:56;18.80;54.50
74101;DHT22;62462;52.530;21.682;2023-03-24T15:33:24;18.80;54.30
74101;DHT22;62462;52.530;21.682;2023-03-24T15:35:56;18.70;54.30
74101;DHT22;62462;52.530;21.682;2023-03-24T15:38:32;18.80;54.40
74101;DHT22;62462;52.530;21.682;2023-03-24T15:41:08;18.80;54.50
74101;DHT22;62462;52.530;21.682;2023-03-24T15:43:44;18.80;54.50
74101;DHT22;62462;52.530;21.682;2023-03-24T15:48:45;18.80;54.50
74101;DHT22;62462;52.530;21.682;2023-03-24T15:51:12;18.80;54.50
74101;DHT22;62462;52.530;21.682;2023-03-24T15:53:49;18.80;54.50
74101;DHT22;62462;52.530;21.682;2023-03-24T15:56:29;18.80;54.80
74101;DHT22;62462;52.530;21.682;2023-03-24T16:01:36;18.70;54.40
74101;DHT22;62462;52.530;21.682;2023-03-24T16:04:05;18.70;54.60
74101;DHT22;62462;52.530;21.682;2023-03-24T16:06:33;18.70;55.10
74101;DHT22;62462;52.530;21.682;2023-03-24T16:09:10;18.70;55.00
74101;DHT22;62462;52.530;21.682;2023-03-24T16:11:38;18.70;55.00
74101;DHT22;62462;52.530;21.682;2023-03-24T16:14:32;18.60;54.90
74101;DHT22;62462;52.530;21.682;2023-03-24T16:17:01;18.60;55.20
74101;DHT22;62462;52.530;21.682;2023-03-24T16:19:29;18.60;55.30
74101;DHT22;62462;52.530;21.682;2023-03-24T16:21:56;18.60;55.50
74101;DHT22;62462;52.530;21.682;2023-03-24T16:24:22;18.60;55.70
74101;DHT22;62462;52.530;21.682;2023-03-24T16:26:48;18.50;55.80
74101;DHT22;62462;52.530;21.682;2023-03-24T16:29:20;18.50;56.00
74101;DHT22;62462;52.530;21.682;2023-03-24T16:31:48;18.50;56.20
74101;DHT22;62462;52.530;21.682;2023-03-24T16:34:15;18.40;56.30
74101;DHT22;62462;52.530;21.682;2023-03-24T16:36:44;18.40;56.70
74101;DHT22;62462;52.530;21.682;2023-03-24T16:39:15;18.40;57.00
74101;DHT22;62462;52.530;21.682;2023-03-24T16:41:43;18.30;57.20
74101;DHT22;62462;52.530;21.682;2023-03-24T16:44:09;18.30;57.50
74101;DHT22;62462;52.530;21.682;2023-03-24T16:46:36;18.20;57.70
74101;DHT22;62462;52.530;21.682;2023-03-24T16:49:05;18.20;57.60
74101;DHT22;62462;52.530;21.682;2023-03-24T16:51:31;18.20;57.90
74101;DHT22;62462;52.530;21.682;2023-03-24T16:53:57;18.10;58.30
74101;DHT22;62462;52.530;21.682;2023-03-24T16:56:23;18.10;58.40
74101;DHT22;62462;52.530;21.682;2023-03-24T16:58:51;18.00;59.60
74101;DHT22;62462;52.530;21.682;2023-03-24T17:01:25;18.00;59.90
74101;DHT22;62462;52.530;21.682;2023-03-24T17:03:52;17.90;61.60
74101;DHT22;62462;52.530;21.682;2023-03-24T17:06:19;17.70;63.80
74101;DHT22;62462;52.530;21.682;2023-03-24T17:08:45;17.70;65.00
74101;DHT22;62462;52.530;21.682;2023-03-24T17:11:11;17.40;67.80
74101;DHT22;62462;52.530;21.682;2023-03-24T17:13:37;17.20;69.40
74101;DHT22;62462;52.530;21.682;2023-03-24T17:16:04;17.00;70.20
74101;DHT22;62462;52.530;21.682;2023-03-24T17:18:30;16.90;71.50
74101;DHT22;62462;52.530;21.682;2023-03-24T17:20:57;16.80;71.90
74101;DHT22;62462;52.530;21.682;2023-03-24T17:23:23;16.70;73.70
74101;DHT22;62462;52.530;21.682;2023-03-24T17:25:49;16.50;75.20
74101;DHT22;62462;52.530;21.682;2023-03-24T17:28:16;16.30;76.90
74101;DHT22;62462;52.530;21.682;2023-03-24T17:30:42;16.10;77.30
74101;DHT22;62462;52.530;21.682;2023-03-24T17:33:14;16.00;78.10
74101;DHT22;62462;52.530;21.682;2023-03-24T17:35:43;15.90;78.10
74101;DHT22;62462;52.530;21.682;2023-03-24T17:38:12;15.80;79.10
74101;DHT22;62462;52.530;21.682;2023-03-24T17:40:38;15.70;79.50
74101;DHT22;62462;52.530;21.682;2023-03-24T17:43:05;15.50;80.10
74101;DHT22;62462;52.530;21.682;2023-03-24T17:45:31;15.50;80.50
74101;DHT22;62462;52.530;21.682;2023-03-24T17:47:56;15.50;80.30
74101;DHT22;62462;52.530;21.682;2023-03-24T17:50:22;15.50;80.20
74101;DHT22;62462;52.530;21.682;2023-03-24T17:52:50;15.50;80.70
74101;DHT22;62462;52.530;21.682;2023-03-24T17:55:16;15.50;81.00
74101;DHT22;62462;52.530;21.682;2023-03-24T17:57:42;15.50;81.20
74101;DHT22;62462;52.530;21.682;2023-03-24T18:00:09;15.40;81.90
74101;DHT22;62462;52.530;21.682;2023-03-24T18:02:37;15.30;82.40
74101;DHT22;62462;52.530;21.682;2023-03-24T18:05:03;15.30;82.90
74101;DHT22;62462;52.530;21.682;2023-03-24T18:07:31;15.20;83.00
74101;DHT22;62462;52.530;21.682;2023-03-24T18:09:57;15.20;83.70
74101;DHT22;62462;52.530;21.682;2023-03-24T18:12:23;15.10;84.40
74101;DHT22;62462;52.530;21.682;2023-03-24T18:14:49;15.10;84.80
74101;DHT22;62462;52.530;21.682;2023-03-24T18:17:15;15.10;84.90
74101;DHT22;62462;52.530;21.682;2023-03-24T18:19:41;15.10;84.50